Time;durP1;ratioP1;P1;durP2;ratioP2;P2;SDS_P1;SDS_P2;PMS_P1;PMS_P2;Temp;Humidity;BMP_temperature;BMP_pressure;BME280_temperature;BME280_humidity;BME280_pressure;Samples;Min_cycle;Max_cycle;Signal;HPM_P1;HPM_P2
2022/10/01 00:00:56;;;;;;;6.53;5.73;;;11.90;99.90;;;;;;5082341;28;20040;-72
2022/10/01 00:03:24;;;;;;;7.85;5.93;;;11.80;99.90;;;;;;5080560;28;20062;-71
2022/10/01 00:06:15;;;;;;;6.90;6.28;;;11.80;99.90;;;;;;5079957;28;20403;-69
2022/10/01 00:08:43;;;;;;;7.13;6.50;;;11.70;99.90;;;;;;5083141;28;20031;-69
2022/10/01 00:11:15;;;;;;;7.47;6.72;;;11.70;99.90;;;;;;5052936;28;20083;-72
2022/10/01 00:13:42;;;;;;;8.98;7.22;;;11.70;99.90;;;;;;5064545;28;20118;-72
2022/10/01 00:16:10;;;;;;;8.05;6.53;;;11.60;99.90;;;;;;5081889;28;20067;-73
2022/10/01 00:18:38;;;;;;;7.43;6.82;;;11.60;99.90;;;;;;5082610;28;20112;-73
2022/10/01 00:21:08;;;;;;;7.13;6.35;;;11.60;99.90;;;;;;5081828;28;20040;-72
2022/10/01 00:23:34;;;;;;;8.38;7.55;;;11.60;99.90;;;;;;5080970;28;20047;-72
2022/10/01 00:26:16;;;;;;;7.63;6.93;;;11.50;99.90;;;;;;5082276;28;20119;-74
2022/10/01 00:28:44;;;;;;;8.40;7.50;;;11.50;99.90;;;;;;5077891;28;20043;-74
2022/10/01 00:31:11;;;;;;;8.40;7.35;;;11.50;99.90;;;;;;5080331;28;20467;-74
2022/10/01 00:33:37;;;;;;;7.47;6.78;;;11.50;99.90;;;;;;5081788;28;20032;-72
2022/10/01 00:36:05;;;;;;;8.40;7.60;;;11.50;99.90;;;;;;5081533;28;20497;-72
2022/10/01 00:38:31;;;;;;;7.88;7.10;;;11.50;99.90;;;;;;5045848;28;20047;-72
2022/10/01 00:40:57;;;;;;;7.93;7.03;;;11.40;99.90;;;;;;5080712;28;20043;-72
2022/10/01 00:43:26;;;;;;;9.98;7.68;;;11.40;99.90;;;;;;5061565;28;21253;-73
2022/10/01 00:45:56;;;;;;;9.35;7.43;;;11.40;99.90;;;;;;5082447;28;20039;-73
2022/10/01 00:48:24;;;;;;;8.90;7.18;;;11.40;99.90;;;;;;5078520;28;21511;-73
2022/10/01 00:50:51;;;;;;;7.00;6.30;;;11.30;99.90;;;;;;5081895;28;20771;-74
2022/10/01 00:53:18;;;;;;;7.80;6.93;;;11.30;99.90;;;;;;5081511;28;20089;-73
2022/10/01 00:55:50;;;;;;;8.05;7.18;;;11.30;99.90;;;;;;5067104;28;20439;-73
2022/10/01 00:58:17;;;;;;;8.00;7.30;;;11.30;99.90;;;;;;5082083;28;20487;-73
2022/10/01 01:00:43;;;;;;;8.55;7.82;;;11.30;99.90;;;;;;5066924;28;20043;-74
2022/10/01 01:03:10;;;;;;;8.45;7.65;;;11.30;99.90;;;;;;5063833;28;21194;-73
2022/10/01 01:05:38;;;;;;;8.60;7.72;;;11.30;99.90;;;;;;5078631;28;20506;-74
2022/10/01 01:08:04;;;;;;;8.50;7.75;;;11.20;99.90;;;;;;5082543;28;20044;-74
2022/10/01 01:10:43;;;;;;;8.43;7.47;;;11.20;99.90;;;;;;5080883;28;20453;-74
2022/10/01 01:13:28;;;;;;;9.77;8.30;;;11.20;99.90;;;;;;5081728;28;20036;-72
2022/10/01 01:16:09;;;;;;;9.40;8.25;;;11.10;99.90;;;;;;5081595;28;20461;-72
2022/10/01 01:18:45;;;;;;;8.95;8.15;;;11.10;99.90;;;;;;5081421;28;20582;-72
2022/10/01 01:21:19;;;;;;;9.30;8.40;;;11.10;99.90;;;;;;5079690;28;20503;-72
2022/10/01 01:23:45;;;;;;;9.82;8.82;;;11.10;99.90;;;;;;5084440;28;20101;-72
2022/10/01 01:26:32;;;;;;;10.55;8.93;;;11.10;99.90;;;;;;5086190;28;20080;-72
2022/10/01 01:29:09;;;;;;;10.05;8.55;;;11.10;99.90;;;;;;5066127;28;20131;-72
2022/10/01 01:31:40;;;;;;;9.43;8.32;;;11.00;99.90;;;;;;5061844;28;20052;-73
2022/10/01 01:34:12;;;;;;;8.93;8.02;;;11.10;99.90;;;;;;5080699;28;20059;-73
2022/10/01 01:36:44;;;;;;;8.98;8.18;;;11.10;99.90;;;;;;5078579;28;20040;-73
2022/10/01 01:39:13;;;;;;;10.23;8.52;;;11.10;99.90;;;;;;5081119;28;20081;-74
2022/10/01 01:41:48;;;;;;;9.45;8.25;;;11.10;99.90;;;;;;5080919;28;20039;-74
2022/10/01 01:44:20;;;;;;;9.35;8.50;;;11.00;99.90;;;;;;5082540;28;20051;-73
2022/10/01 01:46:48;;;;;;;9.20;8.40;;;11.00;99.90;;;;;;5063217;28;20044;-74
2022/10/01 01:49:16;;;;;;;;;;;11.00;99.90;;;;;;5080123;28;20043;-74
2022/10/01 01:52:06;;;;;;;9.35;8.38;;;11.00;99.90;;;;;;5077987;28;19928;-74
2022/10/01 01:54:34;;;;;;;9.00;8.07;;;11.00;99.90;;;;;;5079181;28;20427;-73
2022/10/01 01:57:02;;;;;;;9.10;8.20;;;11.00;99.90;;;;;;5080958;28;20462;-73
2022/10/01 01:59:30;;;;;;;9.55;8.70;;;11.00;99.90;;;;;;5077275;28;21258;-73
2022/10/01 02:01:57;;;;;;;10.07;9.18;;;11.00;99.90;;;;;;5075178;28;20041;-74
2022/10/01 02:04:32;;;;;;;11.50;8.83;;;11.00;99.90;;;;;;5082057;28;20047;-74
2022/10/01 02:07:02;;;;;;;10.43;9.43;;;11.00;99.90;;;;;;5080965;28;20039;-74
2022/10/01 02:09:44;;;;;;;9.70;8.80;;;11.00;99.90;;;;;;5081360;28;20040;-72
2022/10/01 02:12:29;;;;;;;8.63;7.78;;;11.00;99.90;;;;;;5081275;28;20052;-71
2022/10/01 02:15:23;;;;;;;10.70;9.55;;;11.00;99.90;;;;;;5080583;28;20032;-72
2022/10/01 02:18:02;;;;;;;10.63;9.63;;;11.00;99.90;;;;;;5071810;28;20043;-73
2022/10/01 02:20:52;;;;;;;12.25;10.30;;;11.00;99.90;;;;;;5054872;28;20070;-74
2022/10/01 02:23:24;;;;;;;10.68;9.65;;;11.00;99.90;;;;;;5083069;28;20398;-74
2022/10/01 02:26:00;;;;;;;9.50;8.65;;;11.00;99.90;;;;;;5081471;28;20040;-71
2022/10/01 02:28:29;;;;;;;11.15;10.13;;;11.00;99.90;;;;;;5080504;28;20044;-73
2022/10/01 02:30:56;;;;;;;10.00;9.02;;;11.00;99.90;;;;;;5062320;28;20056;-72
2022/10/01 02:33:27;;;;;;;8.70;7.95;;;11.00;99.90;;;;;;5080225;28;20118;-72
2022/10/01 02:35:56;;;;;;;9.10;8.20;;;11.00;99.90;;;;;;5079290;28;20052;-74
2022/10/01 02:38:23;;;;;;;8.30;7.60;;;11.00;99.90;;;;;;5062402;28;20078;-76
2022/10/01 02:40:53;;;;;;;9.10;8.30;;;11.00;99.90;;;;;;5077916;28;22027;-74
2022/10/01 02:43:31;;;;;;;8.82;8.02;;;11.00;99.90;;;;;;5082174;28;20109;-74
2022/10/01 02:46:01;;;;;;;;;;;11.00;99.90;;;;;;5082431;28;20032;-72
2022/10/01 02:48:27;;;;;;;9.23;8.32;;;11.00;99.90;;;;;;5079923;28;19920;-76
2022/10/01 02:51:01;;;;;;;9.48;8.60;;;11.00;99.90;;;;;;5062861;28;20445;-75
2022/10/01 02:53:46;;;;;;;8.57;7.57;;;11.00;99.90;;;;;;5078257;28;20452;-76
2022/10/01 02:57:21;;;;;;;6.97;6.38;;;11.10;99.90;;;;;;5078830;28;20134;-73
2022/10/01 02:59:07;;;;;;;6.95;6.30;;;11.30;99.90;;;;;;5081092;28;20048;-74
2022/10/01 03:01:35;;;;;;;7.28;6.68;;;11.00;99.90;;;;;;5081919;28;20043;-76
2022/10/01 03:04:01;;;;;;;7.95;7.30;;;11.00;99.90;;;;;;5080728;28;20036;-77
2022/10/01 03:06:27;;;;;;;8.48;7.68;;;;;;;;;;5063834;28;20071;-77
2022/10/01 03:08:53;;;;;;;9.25;8.40;;;11.00;99.90;;;;;;5082662;28;20044;-77
2022/10/01 03:11:19;;;;;;;8.25;7.53;;;11.00;99.90;;;;;;5087559;28;20494;-77
2022/10/01 03:13:45;;;;;;;7.70;7.07;;;11.00;99.90;;;;;;5095114;28;20045;-79
2022/10/01 03:16:11;;;;;;;6.07;5.57;;;11.00;99.90;;;;;;5057477;28;20059;-78
2022/10/01 03:18:37;;;;;;;6.80;6.30;;;11.00;99.90;;;;;;5091275;28;20058;-78
2022/10/01 03:21:02;;;;;;;7.70;7.07;;;11.10;99.90;;;;;;5068980;28;20054;-77
2022/10/01 03:23:28;;;;;;;6.97;6.38;;;11.10;99.90;;;;;;5081922;28;20040;-77
2022/10/01 03:25:53;;;;;;;7.20;6.60;;;11.10;99.90;;;;;;5080985;28;20372;-76
2022/10/01 03:28:19;;;;;;;6.38;5.82;;;11.10;99.90;;;;;;5063707;28;20040;-78
2022/10/01 03:30:44;;;;;;;6.55;5.95;;;11.10;99.90;;;;;;5083604;28;20048;-79
2022/10/01 03:33:10;;;;;;;6.72;6.10;;;11.10;99.90;;;;;;5081822;28;20517;-77
2022/10/01 03:35:35;;;;;;;5.70;5.20;;;11.10;99.90;;;;;;5087028;28;20394;-76
2022/10/01 03:38:01;;;;;;;5.38;4.97;;;11.10;99.90;;;;;;5086655;28;20119;-77
2022/10/01 03:40:27;;;;;;;7.50;6.80;;;11.10;99.90;;;;;;5085334;28;20044;-75
2022/10/01 03:42:53;;;;;;;6.95;6.25;;;11.10;99.90;;;;;;5084653;28;20048;-75
2022/10/01 03:45:19;;;;;;;6.88;6.20;;;11.10;99.90;;;;;;5084328;28;20740;-75
2022/10/01 03:47:50;;;;;;;7.78;7.07;;;11.10;99.90;;;;;;5079671;28;20100;-75
2022/10/01 03:50:16;;;;;;;6.50;5.75;;;11.10;99.90;;;;;;5082108;28;20426;-76
2022/10/01 03:52:43;;;;;;;6.50;6.00;;;11.10;99.90;;;;;;5083125;28;20132;-74
2022/10/01 03:55:09;;;;;;;6.10;5.57;;;11.10;99.90;;;;;;5079232;28;20260;-74
2022/10/01 03:57:34;;;;;;;6.32;5.72;;;11.20;99.90;;;;;;5081657;28;20120;-74
2022/10/01 04:00:00;;;;;;;6.78;6.18;;;11.10;99.90;;;;;;5084153;28;20043;-74
2022/10/01 04:02:26;;;;;;;6.30;5.80;;;11.10;99.90;;;;;;5081084;28;20036;-74
2022/10/01 04:04:52;;;;;;;6.40;5.80;;;11.10;99.90;;;;;;5083927;28;20084;-74
2022/10/01 04:07:17;;;;;;;5.25;4.88;;;11.20;99.90;;;;;;5082025;28;20040;-76
2022/10/01 04:09:43;;;;;;;6.15;5.65;;;11.10;99.90;;;;;;5067527;28;20041;-74
2022/10/01 04:12:09;;;;;;;5.93;5.45;;;11.20;99.90;;;;;;5083111;28;20035;-75
2022/10/01 04:14:34;;;;;;;4.88;4.50;;;11.10;99.90;;;;;;5084015;28;20069;-75
2022/10/01 04:17:00;;;;;;;5.18;4.55;;;11.20;99.90;;;;;;5082479;28;20040;-75
2022/10/01 04:19:26;;;;;;;5.03;4.45;;;11.20;99.90;;;;;;5083189;28;21462;-72
2022/10/01 04:21:51;;;;;;;5.28;4.32;;;11.10;99.90;;;;;;5084856;28;20642;-75
2022/10/01 04:24:17;;;;;;;4.40;4.00;;;11.20;99.90;;;;;;5084529;28;20040;-75
2022/10/01 04:26:42;;;;;;;4.95;4.30;;;11.20;99.90;;;;;;5077397;28;20036;-73
2022/10/01 04:29:08;;;;;;;4.78;4.38;;;11.20;99.90;;;;;;5082235;28;20036;-73
2022/10/01 04:31:34;;;;;;;4.80;4.38;;;11.20;99.90;;;;;;5084129;28;20040;-74
2022/10/01 04:34:00;;;;;;;4.68;4.28;;;11.20;99.90;;;;;;5065607;28;20044;-74
2022/10/01 04:36:26;;;;;;;4.20;3.90;;;11.20;99.90;;;;;;5081888;28;20100;-73
2022/10/01 04:38:53;;;;;;;5.07;4.03;;;11.20;99.90;;;;;;5081169;28;20040;-74
2022/10/01 04:41:19;;;;;;;3.50;3.20;;;11.20;99.90;;;;;;5083450;28;20037;-75
2022/10/01 04:43:45;;;;;;;3.35;3.15;;;11.30;99.90;;;;;;5083143;28;20097;-75
2022/10/01 04:46:10;;;;;;;3.58;3.28;;;11.30;99.90;;;;;;5064328;28;20043;-76
2022/10/01 04:48:36;;;;;;;3.08;2.80;;;11.30;99.90;;;;;;5083568;28;20044;-77
2022/10/01 04:51:02;;;;;;;2.90;2.70;;;11.30;99.90;;;;;;5083431;28;20067;-75
2022/10/01 04:53:28;;;;;;;4.03;3.00;;;11.20;99.90;;;;;;5083608;28;20032;-76
2022/10/01 04:55:53;;;;;;;5.40;2.75;;;11.30;99.90;;;;;;5082822;28;20086;-75
2022/10/01 04:58:19;;;;;;;3.03;2.70;;;11.30;99.90;;;;;;5078483;28;20487;-76
2022/10/01 05:00:44;;;;;;;2.95;2.72;;;11.30;99.90;;;;;;5080353;28;20044;-75
2022/10/01 05:03:10;;;;;;;4.70;2.88;;;11.30;99.90;;;;;;5079512;28;20475;-75
2022/10/01 05:05:36;;;;;;;2.92;2.50;;;11.30;99.90;;;;;;5085280;28;20557;-75
2022/10/01 05:08:02;;;;;;;2.47;2.38;;;11.30;99.90;;;;;;5064763;28;20637;-76
2022/10/01 05:10:28;;;;;;;2.67;2.47;;;11.30;99.90;;;;;;5084751;28;20044;-78
2022/10/01 05:12:54;;;;;;;2.70;2.50;;;11.30;99.90;;;;;;5080988;28;20041;-78
2022/10/01 05:15:20;;;;;;;3.33;3.03;;;11.40;99.90;;;;;;5066283;28;20047;-74
2022/10/01 05:17:46;;;;;;;2.65;2.45;;;11.40;99.90;;;;;;5083439;28;20047;-73
2022/10/01 05:20:20;;;;;;;3.10;2.80;;;11.40;99.90;;;;;;5081614;28;20043;-78
2022/10/01 05:22:48;;;;;;;2.80;2.60;;;11.40;99.90;;;;;;5082138;28;20482;-73
2022/10/01 05:25:14;;;;;;;2.90;2.70;;;11.40;99.90;;;;;;5081188;28;20044;-76
2022/10/01 05:27:40;;;;;;;2.92;2.60;;;11.40;99.90;;;;;;5082755;28;20189;-75
2022/10/01 05:30:09;;;;;;;2.63;2.42;;;11.50;99.90;;;;;;5083679;28;20047;-74
2022/10/01 05:32:35;;;;;;;2.90;2.70;;;11.50;99.90;;;;;;5081820;28;20051;-74
2022/10/01 05:35:01;;;;;;;2.90;2.70;;;11.50;99.90;;;;;;5082737;28;20364;-74
2022/10/01 05:37:27;;;;;;;3.45;2.85;;;11.50;99.90;;;;;;5082422;28;20395;-74
2022/10/01 05:39:52;;;;;;;2.88;2.67;;;11.50;99.90;;;;;;5080116;28;20045;-74
2022/10/01 05:42:18;;;;;;;3.28;2.97;;;11.60;99.90;;;;;;5082936;28;20055;-73
2022/10/01 05:44:48;;;;;;;3.35;3.10;;;11.60;99.90;;;;;;5081864;28;20047;-73
2022/10/01 05:47:15;;;;;;;2.97;2.78;;;11.60;99.90;;;;;;5084236;28;20045;-73
2022/10/01 05:49:42;;;;;;;3.42;3.13;;;11.60;99.90;;;;;;5082602;28;20037;-72
2022/10/01 05:52:12;;;;;;;3.47;3.15;;;11.60;99.90;;;;;;5081058;28;20043;-73
2022/10/01 05:54:37;;;;;;;3.35;3.15;;;11.60;99.90;;;;;;5081236;28;20051;-73
2022/10/01 05:57:04;;;;;;;3.58;3.28;;;11.60;99.90;;;;;;5081138;28;20399;-73
2022/10/01 05:59:30;;;;;;;5.15;3.78;;;11.70;99.90;;;;;;5081182;28;20058;-73
2022/10/01 06:01:55;;;;;;;3.50;3.25;;;11.70;99.90;;;;;;5080893;28;20044;-73
2022/10/01 06:04:21;;;;;;;3.60;3.40;;;11.70;99.90;;;;;;5062822;28;20143;-73
2022/10/01 06:06:46;;;;;;;4.13;3.80;;;11.80;99.90;;;;;;5079933;28;20048;-72
2022/10/01 06:09:12;;;;;;;4.10;3.70;;;11.80;99.90;;;;;;5081479;28;20067;-72
2022/10/01 06:11:38;;;;;;;3.75;3.45;;;11.80;99.90;;;;;;5080212;28;20123;-72
2022/10/01 06:14:04;;;;;;;4.80;3.58;;;11.80;99.90;;;;;;5077537;28;20869;-73
2022/10/01 06:16:30;;;;;;;3.85;3.55;;;11.80;99.90;;;;;;5081493;28;20070;-72
2022/10/01 06:18:56;;;;;;;4.90;4.50;;;11.80;99.90;;;;;;5081196;28;20044;-73
2022/10/01 06:21:26;;;;;;;4.47;4.07;;;11.80;99.90;;;;;;5081169;28;20081;-73
2022/10/01 06:23:52;;;;;;;4.80;4.03;;;11.90;99.90;;;;;;5074789;28;20117;-73
2022/10/01 06:26:18;;;;;;;4.25;3.95;;;11.90;99.90;;;;;;5081735;28;20032;-73
2022/10/01 06:28:47;;;;;;;4.85;4.50;;;12.00;99.90;;;;;;5081222;28;20093;-74
2022/10/01 06:31:12;;;;;;;5.43;4.20;;;12.00;99.90;;;;;;5081796;28;20058;-73
2022/10/01 06:33:38;;;;;;;4.70;4.30;;;12.10;99.90;;;;;;5078638;28;20115;-74
2022/10/01 06:36:03;;;;;;;4.60;4.18;;;12.10;99.90;;;;;;5076842;28;20043;-74
2022/10/01 06:38:29;;;;;;;4.93;4.53;;;12.10;99.90;;;;;;5078764;28;20403;-74
2022/10/01 06:41:00;;;;;;;4.75;4.35;;;12.20;99.90;;;;;;5083652;28;20155;-74
2022/10/01 06:43:28;;;;;;;5.60;4.50;;;12.20;99.90;;;;;;5077841;28;20090;-74
2022/10/01 06:45:54;;;;;;;;;;;12.30;99.90;;;;;;5080872;28;20131;-73
2022/10/01 06:48:20;;;;;;;5.30;4.80;;;12.30;99.90;;;;;;5060781;28;20014;-73
2022/10/01 06:50:47;;;;;;;5.72;5.13;;;12.40;99.90;;;;;;5078103;28;20040;-73
2022/10/01 06:53:15;;;;;;;5.72;5.10;;;12.50;99.90;;;;;;5082816;28;20059;-73
2022/10/01 06:55:41;;;;;;;6.68;4.72;;;12.50;99.90;;;;;;5062958;28;20040;-73
2022/10/01 06:58:14;;;;;;;5.60;5.10;;;12.60;99.90;;;;;;5080959;28;20036;-72
2022/10/01 07:00:41;;;;;;;5.35;4.95;;;12.60;99.90;;;;;;5078423;28;20040;-73
2022/10/01 07:03:09;;;;;;;7.35;5.28;;;12.70;99.90;;;;;;5082482;28;20028;-73
2022/10/01 07:05:36;;;;;;;5.28;4.78;;;12.70;99.90;;;;;;5076299;28;20119;-74
2022/10/01 07:08:02;;;;;;;7.57;4.93;;;12.70;99.90;;;;;;5080965;28;20074;-74
2022/10/01 07:10:28;;;;;;;6.95;5.00;;;12.80;99.90;;;;;;5086197;28;20072;-75
2022/10/01 07:12:53;;;;;;;7.32;5.30;;;12.80;99.90;;;;;;5086064;28;20047;-74
2022/10/01 07:15:24;;;;;;;6.40;4.88;;;12.90;99.90;;;;;;5084670;28;20082;-75
2022/10/01 07:17:51;;;;;;;6.28;5.15;;;12.90;99.90;;;;;;5083244;28;20056;-75
2022/10/01 07:20:19;;;;;;;5.72;5.32;;;12.80;99.90;;;;;;5085415;28;20428;-73
2022/10/01 07:22:45;;;;;;;6.38;5.53;;;12.90;99.90;;;;;;5083449;28;20671;-74
2022/10/01 07:25:12;;;;;;;5.78;5.20;;;12.90;99.90;;;;;;5067659;28;20040;-75
2022/10/01 07:27:38;;;;;;;6.55;5.95;;;12.90;99.90;;;;;;5070961;28;20040;-75
2022/10/01 07:30:05;;;;;;;7.47;6.40;;;13.10;99.90;;;;;;5082897;28;20036;-74
2022/10/01 07:32:31;;;;;;;9.73;6.40;;;13.10;99.90;;;;;;5088808;28;20050;-74
2022/10/01 07:34:58;;;;;;;7.13;5.47;;;13.40;99.90;;;;;;5084585;28;20718;-72
2022/10/01 07:37:24;;;;;;;8.30;5.68;;;13.50;99.90;;;;;;5085726;28;20380;-73
2022/10/01 07:39:49;;;;;;;8.15;5.47;;;13.50;99.90;;;;;;5084784;28;20449;-75
2022/10/01 07:42:15;;;;;;;5.95;5.10;;;13.50;99.90;;;;;;5082112;28;20123;-75
2022/10/01 07:44:41;;;;;;;7.53;5.70;;;13.50;99.90;;;;;;5071089;28;20048;-74
2022/10/01 07:47:07;;;;;;;6.43;5.82;;;13.60;99.90;;;;;;5086698;28;20117;-72
2022/10/01 07:49:32;;;;;;;8.38;6.05;;;13.70;99.90;;;;;;5084742;28;21067;-73
2022/10/01 07:51:58;;;;;;;11.50;5.10;;;13.90;99.90;;;;;;5072038;28;20040;-72
2022/10/01 07:54:24;;;;;;;8.55;5.35;;;14.00;99.90;;;;;;5070468;28;20116;-71
2022/10/01 07:56:54;;;;;;;7.90;5.22;;;14.00;99.90;;;;;;5084185;28;20036;-72
2022/10/01 07:59:21;;;;;;;6.47;4.72;;;14.20;99.90;;;;;;5086366;28;20063;-72
2022/10/01 08:01:50;;;;;;;7.00;4.63;;;14.20;99.90;;;;;;5085385;28;20051;-72
2022/10/01 08:07:01;;;;;;;5.85;4.20;;;14.50;99.90;;;;;;5090283;28;20090;-72
2022/10/01 08:09:27;;;;;;;6.82;4.05;;;14.80;99.90;;;;;;5086098;28;20551;-73
2022/10/01 08:11:53;;;;;;;6.57;3.83;;;14.90;99.90;;;;;;5085734;28;20070;-72
2022/10/01 08:14:19;;;;;;;6.70;3.75;;;14.90;99.90;;;;;;5087908;28;20040;-73
2022/10/01 08:16:45;;;;;;;7.07;3.42;;;15.10;99.90;;;;;;5087838;28;20652;-72
2022/10/01 08:19:11;;;;;;;10.52;3.58;;;15.20;99.90;;;;;;5081362;28;20036;-73
2022/10/01 08:21:38;;;;;;;11.15;3.47;;;15.30;99.90;;;;;;5085260;28;20495;-73
2022/10/01 08:24:04;;;;;;;6.57;3.35;;;15.40;99.90;;;;;;5092329;28;20130;-72
2022/10/01 08:26:30;;;;;;;6.18;3.17;;;15.30;99.90;;;;;;5090179;28;20032;-72
2022/10/01 08:28:58;;;;;;;5.05;2.78;;;15.30;99.90;;;;;;5066958;28;20414;-72
2022/10/01 08:31:24;;;;;;;5.72;3.00;;;15.30;99.90;;;;;;5066083;28;20040;-73
2022/10/01 08:33:50;;;;;;;5.88;3.08;;;15.30;99.90;;;;;;5091819;28;20379;-72
2022/10/01 08:36:15;;;;;;;8.85;3.75;;;15.40;99.90;;;;;;5085292;28;20040;-73
2022/10/01 08:38:44;;;;;;;7.43;2.85;;;15.60;99.90;;;;;;5088372;28;20040;-72
2022/10/01 08:41:22;;;;;;;9.52;3.63;;;15.70;99.90;;;;;;5086213;28;20048;-72
2022/10/01 08:43:50;;;;;;;7.20;3.05;;;15.70;99.90;;;;;;5085560;28;20048;-72
2022/10/01 08:46:19;;;;;;;7.68;3.50;;;15.60;99.90;;;;;;5064555;28;20127;-72
2022/10/01 08:49:11;;;;;;;8.48;3.33;;;15.80;99.90;;;;;;5088247;28;20032;-72
2022/10/01 08:51:48;;;;;;;5.50;2.97;;;15.70;99.90;;;;;;5083961;28;20040;-72
2022/10/01 08:54:40;;;;;;;9.02;3.10;;;15.80;99.90;;;;;;5079753;28;20138;-71
2022/10/01 08:57:12;;;;;;;7.53;3.00;;;15.80;99.90;;;;;;5081530;28;20050;-72
2022/10/01 08:59:48;;;;;;;5.38;2.90;;;16.10;99.90;;;;;;5085449;28;20047;-72
2022/10/01 09:02:30;;;;;;;8.05;2.45;;;16.20;99.90;;;;;;5083980;28;20052;-72
2022/10/01 09:04:57;;;;;;;9.35;2.50;;;16.50;99.90;;;;;;5086587;28;20063;-72
2022/10/01 09:08:05;;;;;;;6.97;2.23;;;16.70;99.90;;;;;;5083726;28;20040;-72
2022/10/01 09:10:42;;;;;;;7.30;2.22;;;16.70;99.90;;;;;;5083098;28;20052;-72
2022/10/01 09:13:25;;;;;;;8.50;2.08;;;16.60;99.90;;;;;;5079447;28;20556;-72
2022/10/01 09:16:17;;;;;;;5.93;2.10;;;16.70;99.90;;;;;;5082351;28;20040;-72
2022/10/01 09:19:33;;;;;;;8.45;1.98;;;16.70;99.90;;;;;;5079698;28;20449;-72
2022/10/01 09:22:10;;;;;;;8.52;1.85;;;16.90;99.90;;;;;;5043414;28;20050;-71
2022/10/01 09:24:53;;;;;;;5.43;1.77;;;17.20;99.90;;;;;;5080632;28;20047;-72
2022/10/01 09:27:26;;;;;;;6.25;2.15;;;17.50;99.90;;;;;;5086525;28;20164;-72
2022/10/01 09:30:11;;;;;;;8.45;3.08;;;17.40;99.90;;;;;;5083387;28;20595;-73
2022/10/01 09:32:54;;;;;;;6.13;1.80;;;17.30;99.90;;;;;;5085893;28;20501;-73
2022/10/01 09:35:34;;;;;;;5.68;1.40;;;17.20;99.90;;;;;;5084256;28;20521;-73
2022/10/01 09:38:14;;;;;;;7.03;1.50;;;17.10;99.90;;;;;;5085125;28;20059;-73
2022/10/01 09:40:54;;;;;;;5.82;1.58;;;17.00;99.90;;;;;;5084589;28;20422;-68
2022/10/01 09:43:27;;;;;;;9.05;1.80;;;16.90;99.90;;;;;;5086107;28;20098;-72
2022/10/01 09:45:53;;;;;;;6.40;1.58;;;16.90;99.90;;;;;;5079473;28;20055;-72
2022/10/01 09:49:03;;;;;;;7.47;2.10;;;17.00;99.90;;;;;;5086340;28;20044;-72
2022/10/01 09:51:37;;;;;;;7.75;1.58;;;17.10;99.90;;;;;;5051806;28;20055;-72
2022/10/01 09:54:25;;;;;;;5.82;1.50;;;17.10;99.90;;;;;;5072802;28;20047;-72
2022/10/01 09:57:04;;;;;;;8.50;1.90;;;17.20;99.90;;;;;;5093282;28;20435;-72
2022/10/01 09:59:37;;;;;;;8.57;1.98;;;17.30;99.90;;;;;;5093620;28;20040;-72
2022/10/01 10:02:15;;;;;;;4.07;1.40;;;17.60;99.90;;;;;;5092019;28;20134;-72
2022/10/01 10:04:40;;;;;;;5.82;1.58;;;17.80;99.90;;;;;;5075167;28;20048;-72
2022/10/01 10:07:06;;;;;;;6.30;2.08;;;17.70;99.90;;;;;;5092559;28;20043;-72
2022/10/01 10:09:34;;;;;;;6.38;1.65;;;17.40;99.90;;;;;;5092219;28;20050;-72
2022/10/01 10:12:00;;;;;;;8.35;1.95;;;17.10;99.90;;;;;;5090936;28;20055;-72
2022/10/01 10:14:40;;;;;;;4.82;1.83;;;16.80;99.90;;;;;;5093003;28;20062;-72
2022/10/01 10:17:12;;;;;;;7.65;1.85;;;16.60;99.90;;;;;;5093152;28;20036;-72
2022/10/01 10:19:38;;;;;;;9.27;1.85;;;16.40;99.90;;;;;;5093323;28;20047;-72
2022/10/01 10:22:21;;;;;;;8.43;1.83;;;16.30;99.90;;;;;;5092922;28;20040;-72
2022/10/01 10:24:46;;;;;;;6.95;1.65;;;16.10;99.90;;;;;;5091761;28;20075;-73
2022/10/01 10:27:25;;;;;;;7.68;1.75;;;16.00;99.90;;;;;;5074726;28;20083;-72
2022/10/01 10:30:01;;;;;;;4.85;1.80;;;16.00;99.90;;;;;;5074984;28;20047;-71
2022/10/01 10:32:28;;;;;;;7.30;1.75;;;16.20;99.90;;;;;;5075114;28;20036;-72
2022/10/01 10:34:58;;;;;;;7.70;1.83;;;16.50;99.90;;;;;;5091277;28;20040;-73
2022/10/01 10:37:30;;;;;;;8.07;2.47;;;16.60;99.90;;;;;;5086968;28;20056;-73
2022/10/01 10:39:57;;;;;;;8.18;2.47;;;16.60;99.90;;;;;;5085917;28;20068;-73
2022/10/01 10:42:24;;;;;;;5.85;1.80;;;16.80;99.90;;;;;;5086010;28;20059;-73
2022/10/01 10:44:53;;;;;;;9.38;2.30;;;16.80;99.90;;;;;;5071772;28;20043;-74
2022/10/01 10:47:20;;;;;;;5.82;1.92;;;16.70;99.90;;;;;;5091750;28;20032;-73
2022/10/01 10:49:51;;;;;;;7.22;2.22;;;16.60;99.90;;;;;;5074241;28;20059;-73
2022/10/01 10:52:32;;;;;;;10.27;3.10;;;16.40;99.90;;;;;;5090867;28;20498;-73
2022/10/01 10:54:59;;;;;;;10.13;2.17;;;16.20;99.90;;;;;;5086761;28;20040;-74
2022/10/01 10:57:30;;;;;;;9.82;2.22;;;16.10;99.90;;;;;;5068594;28;20490;-74
2022/10/01 11:00:04;;;;;;;7.55;2.20;;;16.00;99.90;;;;;;5089960;28;20387;-74
2022/10/01 11:02:32;;;;;;;6.28;1.70;;;16.00;99.90;;;;;;5090243;28;20040;-75
2022/10/01 11:05:18;;;;;;;6.25;1.55;;;16.00;99.90;;;;;;5089639;28;20040;-74
2022/10/01 11:07:46;;;;;;;7.25;2.00;;;16.30;99.90;;;;;;5090232;28;21530;-74
2022/10/01 11:10:28;;;;;;;11.98;1.98;;;17.10;99.90;;;;;;5087833;28;20032;-73
2022/10/01 11:13:24;;;;;;;12.00;2.40;;;17.10;99.90;;;;;;5089637;28;20506;-74
2022/10/01 11:16:21;;;;;;;10.75;2.42;;;17.10;99.90;;;;;;5088419;28;20410;-74
2022/10/01 11:19:00;;;;;;;5.00;1.40;;;17.10;99.90;;;;;;5088367;28;20048;-74
2022/10/01 11:22:06;;;;;;;6.00;1.50;;;17.00;99.90;;;;;;5089115;28;20052;-74
2022/10/01 11:24:41;;;;;;;7.53;2.00;;;16.90;99.90;;;;;;5088035;28;20127;-74
2022/10/01 11:27:26;;;;;;;5.05;1.30;;;16.70;99.90;;;;;;5088361;28;20044;-74
2022/10/01 11:30:11;;;;;;;5.60;1.60;;;16.60;99.90;;;;;;5086718;28;20486;-73
2022/10/01 11:32:59;;;;;;;6.85;1.63;;;16.10;99.90;;;;;;5089070;28;20117;-74
2022/10/01 11:35:33;;;;;;;4.65;1.27;;;15.70;99.90;;;;;;5091465;28;20040;-74
2022/10/01 11:38:36;;;;;;;6.60;1.35;;;15.70;99.90;;;;;;5089643;28;20039;-73
2022/10/01 11:41:34;;;;;;;8.18;1.40;;;15.60;99.90;;;;;;5088544;28;20098;-74
2022/10/01 11:44:03;;;;;;;7.60;1.58;;;15.70;99.90;;;;;;5091510;28;20044;-74
2022/10/01 11:46:57;;;;;;;4.35;1.05;;;15.50;99.90;;;;;;5090426;28;20051;-74
2022/10/01 11:49:54;;;;;;;6.22;1.90;;;15.30;99.90;;;;;;5085292;28;20398;-75
2022/10/01 11:52:25;;;;;;;7.70;1.70;;;15.20;99.90;;;;;;5086720;28;20036;-74
2022/10/01 11:58:51;;;;;;;7.28;1.67;;;14.90;99.90;;;;;;5070718;28;20059;-71
2022/10/01 12:01:23;;;;;;;7.15;1.60;;;14.80;99.90;;;;;;5088423;28;20165;-71
2022/10/01 12:03:51;;;;;;;5.35;1.52;;;14.80;99.90;;;;;;5090731;28;20051;-70
2022/10/01 12:06:20;;;;;;;8.63;1.77;;;14.90;99.90;;;;;;5087056;28;20487;-71
2022/10/01 12:08:53;;;;;;;6.82;1.70;;;15.00;99.90;;;;;;5087596;28;20072;-72
2022/10/01 12:11:33;;;;;;;7.85;1.60;;;15.10;99.90;;;;;;5089079;28;20170;-69
2022/10/01 12:14:12;;;;;;;8.05;1.70;;;15.30;99.90;;;;;;5089170;28;20048;-74
2022/10/01 12:16:52;;;;;;;7.28;1.88;;;15.40;99.90;;;;;;5069872;28;20098;-73
2022/10/01 12:19:52;;;;;;;9.52;2.28;;;15.70;99.90;;;;;;5069794;28;20044;-73
2022/10/01 12:22:28;;;;;;;11.35;2.17;;;15.80;99.90;;;;;;5035249;28;20147;-75
2022/10/01 12:24:54;;;;;;;8.98;1.80;;;15.90;99.90;;;;;;5088651;28;20047;-74
2022/10/01 12:27:43;;;;;;;8.15;2.05;;;16.00;99.90;;;;;;5089463;28;20058;-72
2022/10/01 12:30:28;;;;;;;11.60;2.22;;;16.00;99.90;;;;;;5065376;28;20042;-74
2022/10/01 12:32:56;;;;;;;11.73;2.53;;;16.10;99.90;;;;;;5069987;28;20032;-73
2022/10/01 12:35:34;;;;;;;8.32;2.10;;;16.10;99.90;;;;;;5067330;28;20044;-75
2022/10/01 12:38:12;;;;;;;7.95;1.80;;;16.10;99.90;;;;;;5089474;28;20048;-73
2022/10/01 12:40:44;;;;;;;7.50;2.00;;;16.20;99.90;;;;;;5087641;28;20079;-74
2022/10/01 12:43:38;;;;;;;5.72;1.60;;;16.10;99.90;;;;;;5089502;28;20431;-73
2022/10/01 12:46:04;;;;;;;7.72;1.80;;;16.10;99.90;;;;;;5086910;28;21100;-72
2022/10/01 12:48:59;;;;;;;8.75;2.67;;;16.20;99.90;;;;;;5089002;28;20494;-72
2022/10/01 12:52:08;;;;;;;10.63;2.00;;;16.00;99.90;;;;;;5087035;28;20040;-76
2022/10/01 12:54:49;;;;;;;5.55;1.60;;;15.90;99.90;;;;;;5009191;28;20108;-76
2022/10/01 12:57:16;;;;;;;11.02;2.13;;;15.70;99.90;;;;;;5004194;28;20052;-76
2022/10/01 12:59:58;;;;;;;10.55;2.22;;;15.60;99.90;;;;;;5006429;28;20452;-75
2022/10/01 13:02:33;;;;;;;6.53;1.77;;;15.60;99.90;;;;;;5004625;28;20061;-74
2022/10/01 13:05:15;;;;;;;10.25;1.80;;;15.50;99.90;;;;;;5005011;28;20046;-73
2022/10/01 13:08:00;;;;;;;9.63;2.10;;;15.70;99.90;;;;;;5006621;28;20128;-73
2022/10/01 13:10:41;;;;;;;7.43;1.88;;;;;;;;;;5005036;28;20068;-74
2022/10/01 13:13:21;;;;;;;5.35;1.58;;;16.30;99.90;;;;;;5005791;28;20077;-73
2022/10/01 13:15:54;;;;;;;11.93;2.10;;;16.60;99.90;;;;;;5006042;28;20112;-74
2022/10/01 13:18:44;;;;;;;8.85;2.22;;;16.50;99.90;;;;;;5008705;28;20056;-74